Time;durP1;ratioP1;P1;durP2;ratioP2;P2;SDS_P1;SDS_P2;PMS_P1;PMS_P2;Temp;Humidity;BMP_temperature;BMP_pressure;BME280_temperature;BME280_humidity;BME280_pressure;Samples;Min_cycle;Max_cycle;Signal;HPM_P1;HPM_P2
2023/11/18 00:00:16;;;;;;;1.10;1.10;;;;;;;8.67;80.24;92602.16;516268;28;1054;-70
2023/11/18 00:00:33;;;;;;;1.20;1.20;;;;;;;8.61;80.20;92601.63;515665;28;1010;-70
2023/11/18 00:00:48;;;;;;;1.13;1.13;;;;;;;8.58;80.45;92608.22;515143;28;1188;-70
2023/11/18 00:01:03;;;;;;;1.37;1.10;;;;;;;8.58;80.40;92608.22;515536;28;1161;-70
2023/11/18 00:01:19;;;;;;;1.60;1.38;;;;;;;8.58;80.47;92604.75;515580;28;1189;-70
2023/11/18 00:01:34;;;;;;;1.20;1.20;;;;;;;8.57;80.65;92611.53;515002;28;963;-70
2023/11/18 00:01:49;;;;;;;0.80;0.80;;;;;;;8.59;80.44;92615.22;516545;28;1160;-70
2023/11/18 00:02:05;;;;;;;0.90;0.90;;;;;;;8.59;80.58;92614.47;515749;28;1375;-70
2023/11/18 00:02:20;;;;;;;1.17;1.17;;;;;;;8.55;80.88;92614.13;515683;28;1110;-70
2023/11/18 00:02:36;;;;;;;1.40;1.30;;;;;;;8.55;80.70;92617.63;515173;28;1161;-71
2023/11/18 00:02:51;;;;;;;1.15;1.10;;;;;;;8.54;80.87;92618.88;515271;28;1464;-71
2023/11/18 00:03:07;;;;;;;1.23;1.20;;;;;;;8.54;80.99;92618.16;515084;28;1118;-70
2023/11/18 00:03:22;;;;;;;1.40;1.30;;;;;;;8.55;80.85;92619.63;515247;28;1728;-70
2023/11/18 00:03:38;;;;;;;1.20;1.20;;;;;;;8.54;80.87;92623.66;515093;28;912;-70
2023/11/18 00:03:53;;;;;;;1.10;1.10;;;;;;;8.54;80.92;92621.63;515359;28;1077;-70
2023/11/18 00:04:15;;;;;;;0.93;0.93;;;;;;;8.48;80.79;92612.13;516008;28;907;-70
2023/11/18 00:04:30;;;;;;;1.00;1.00;;;;;;;8.54;81.05;92618.88;515299;28;1156;-71
2023/11/18 00:04:46;;;;;;;1.10;1.10;;;;;;;8.52;80.88;92621.47;516927;28;1023;-70
2023/11/18 00:05:01;;;;;;;1.00;1.00;;;;;;;8.52;81.04;92621.47;516938;28;1191;-70
2023/11/18 00:05:17;;;;;;;0.80;0.80;;;;;;;8.53;81.13;92617.44;514042;28;1142;-70
2023/11/18 00:05:32;;;;;;;0.95;0.95;;;;;;;8.52;81.12;92626.22;515929;28;1194;-70
2023/11/18 00:05:48;;;;;;;1.10;1.10;;;;;;;8.51;81.07;92622.03;515158;28;1176;-70
2023/11/18 00:06:03;;;;;;;1.20;1.20;;;;;;;8.51;80.74;92625.50;515349;28;1339;-70
2023/11/18 00:06:19;;;;;;;1.67;1.57;;;;;;;8.49;80.93;92619.81;515617;28;1098;-70
2023/11/18 00:06:34;;;;;;;1.65;1.55;;;;;;;8.51;80.46;92620.00;515164;28;1192;-70
2023/11/18 00:06:50;;;;;;;1.30;1.20;;;;;;;8.52;80.57;92620.72;515251;28;1232;-70
2023/11/18 00:07:06;;;;;;;1.27;1.17;;;;;;;8.51;80.19;92619.28;514349;28;1197;-70
2023/11/18 00:07:21;;;;;;;1.20;1.10;;;;;;;8.52;80.31;92618.72;514163;28;1121;-70
2023/11/18 00:07:36;;;;;;;1.20;1.10;;;;;;;8.52;80.43;92624.22;514439;28;1205;-70
2023/11/18 00:07:52;;;;;;;1.10;1.10;;;;;;;8.53;80.59;92620.19;513774;28;1173;-70
2023/11/18 00:08:07;;;;;;;1.00;1.00;;;;;;;8.54;80.60;92618.16;514096;28;1113;-71
2023/11/18 00:08:23;;;;;;;1.00;1.00;;;;;;;8.54;80.86;92618.88;515726;28;770;-71
2023/11/18 00:08:39;;;;;;;0.98;0.98;;;;;;;8.53;80.78;92614.69;514737;28;1506;-70
2023/11/18 00:08:54;;;;;;;1.10;1.10;;;;;;;8.54;80.90;92618.16;513561;28;959;-70
2023/11/18 00:09:14;;;;;;;1.07;1.07;;;;;;;8.52;80.78;92617.97;514627;28;1473;-70
2023/11/18 00:09:29;;;;;;;0.90;0.90;;;;;;;8.53;80.71;92617.44;513903;28;1992;-71
2023/11/18 00:09:45;;;;;;;1.10;1.10;;;;;;;8.53;80.70;92620.19;515218;28;1303;-71
2023/11/18 00:10:01;;;;;;;1.10;1.10;;;;;;;8.53;80.98;92620.19;516375;28;1200;-70
2023/11/18 00:10:17;;;;;;;0.90;0.90;;;;;;;8.53;80.82;92625.69;515493;28;951;-70
2023/11/18 00:10:32;;;;;;;0.75;0.75;;;;;;;8.52;80.81;92621.47;517556;28;1119;-69
2023/11/18 00:10:47;;;;;;;0.80;0.80;;;;;;;8.52;80.90;92618.72;515784;28;1300;-70
2023/11/18 00:11:03;;;;;;;0.90;0.90;;;;;;;8.54;80.96;92623.66;515706;28;938;-70
2023/11/18 00:11:19;;;;;;;0.90;0.90;;;;;;;8.53;80.96;92622.19;515131;28;1081;-70
2023/11/18 00:11:34;;;;;;;0.80;0.80;;;;;;;8.54;81.34;92620.91;515388;28;827;-70
2023/11/18 00:11:49;;;;;;;0.87;0.87;;;;;;;8.54;81.42;92621.63;514293;28;1039;-70
2023/11/18 00:12:05;;;;;;;1.00;1.00;;;;;;;8.55;81.09;92620.38;514235;28;1098;-70
2023/11/18 00:12:23;;;;;;;1.02;1.02;;;;;;;8.56;81.02;92621.81;515372;28;1254;-70
2023/11/18 00:12:41;;;;;;;0.90;0.90;;;;;;;8.56;81.19;92624.56;515288;28;884;-69
2023/11/18 00:12:57;;;;;;;0.95;0.95;;;;;;;8.56;81.12;92619.06;514529;28;1515;-70
2023/11/18 00:13:13;;;;;;;1.00;1.00;;;;;;;8.34;81.25;92584.84;515591;28;917;-70
2023/11/18 00:13:28;;;;;;;1.00;1.00;;;;;;;8.57;80.76;92619.81;514886;28;1075;-70
2023/11/18 00:13:44;;;;;;;1.17;1.17;;;;;;;8.41;80.84;92597.09;515566;28;1079;-70
2023/11/18 00:13:59;;;;;;;1.30;1.30;;;;;;;8.57;80.87;92615.03;517226;28;1157;-70
2023/11/18 00:14:15;;;;;;;0.93;0.93;;;;;;;8.55;80.68;92622.38;515306;28;956;-70
2023/11/18 00:14:31;;;;;;;0.95;0.95;;;;;;;8.54;80.78;92615.41;517513;28;820;-70
2023/11/18 00:14:47;;;;;;;1.10;1.10;;;;;;;8.53;80.44;92619.44;517456;28;867;-69
2023/11/18 00:15:04;;;;;;;1.00;1.00;;;;;;;8.52;80.75;92615.97;516522;28;1038;-69
2023/11/18 00:15:19;;;;;;;1.10;1.10;;;;;;;8.52;80.63;92612.47;515397;28;1131;-69
2023/11/18 00:15:35;;;;;;;1.30;1.30;;;;;;;8.51;80.40;92617.22;515232;28;758;-69
2023/11/18 00:15:51;;;;;;;1.50;1.50;;;;;;;8.51;80.52;92613.78;514925;28;1776;-69
2023/11/18 00:16:07;;;;;;;1.40;1.40;;;;;;;8.51;80.21;92608.97;515445;28;1050;-69
2023/11/18 00:16:22;;;;;;;1.40;1.40;;;;;;;8.50;80.20;92602.03;515806;28;1153;-69
2023/11/18 00:16:38;;;;;;;1.48;1.40;;;;;;;8.49;80.01;92608.81;515681;28;1083;-70
2023/11/18 00:16:53;;;;;;;1.38;1.38;;;;;;;8.51;80.10;92611.03;514833;28;1851;-69
2023/11/18 00:17:09;;;;;;;1.40;1.40;;;;;;;8.51;80.08;92603.47;515402;28;1026;-69
2023/11/18 00:17:25;;;;;;;1.50;1.40;;;;;;;8.50;79.82;92606.78;515656;28;801;-69
2023/11/18 00:17:40;;;;;;;1.40;1.30;;;;;;;8.50;79.93;92607.53;515540;28;915;-69
2023/11/18 00:17:55;;;;;;;1.33;1.23;;;;;;;8.50;79.99;92593.03;515529;28;1110;-69
2023/11/18 00:18:11;;;;;;;1.33;1.23;;;;;;;8.51;79.94;92597.97;515667;28;1061;-69
2023/11/18 00:18:27;;;;;;;1.58;1.38;;;;;;;8.50;80.16;92593.03;515260;28;1736;-69
2023/11/18 00:18:43;;;;;;;1.57;1.40;;;;;;;8.38;80.14;92582.44;515728;28;1006;-69
2023/11/18 00:18:58;;;;;;;1.50;1.40;;;;;;;8.48;79.95;92590.13;515887;28;1264;-70
2023/11/18 00:19:14;;;;;;;1.30;1.30;;;;;;;8.47;80.06;92592.13;514597;28;1030;-70
2023/11/18 00:19:29;;;;;;;1.20;1.20;;;;;;;8.47;80.00;92592.13;515437;28;2366;-71
2023/11/18 00:19:45;;;;;;;1.30;1.20;;;;;;;8.47;80.28;92588.66;514656;28;985;-71
2023/11/18 00:20:00;;;;;;;1.40;1.30;;;;;;;8.47;80.41;92592.13;514316;28;1087;-71
2023/11/18 00:20:16;;;;;;;1.20;1.20;;;;;;;8.46;80.19;92589.94;515217;28;916;-71
2023/11/18 00:20:32;;;;;;;1.08;1.08;;;;;;;8.46;80.32;92593.44;515522;28;850;-70
2023/11/18 00:20:47;;;;;;;1.07;1.07;;;;;;;8.45;80.63;92594.72;515375;28;871;-70
2023/11/18 00:21:04;;;;;;;1.00;1.00;;;;;;;8.45;80.34;92591.22;515744;28;940;-70
2023/11/18 00:21:19;;;;;;;1.65;0.90;;;;;;;8.46;80.49;92601.69;514683;28;1641;-70
2023/11/18 00:21:36;;;;;;;1.25;0.90;;;;;;;8.46;80.56;92596.19;515689;28;999;-70
2023/11/18 00:21:51;;;;;;;1.40;1.13;;;;;;;8.46;80.75;92595.44;515968;28;1034;-71
2023/11/18 00:22:06;;;;;;;1.50;1.37;;;;;;;8.46;80.80;92604.44;517454;28;978;-70
2023/11/18 00:22:22;;;;;;;1.30;1.30;;;;;;;8.46;80.71;92596.19;515930;28;999;-70
2023/11/18 00:22:38;;;;;;;1.23;1.23;;;;;;;8.46;80.54;92601.69;515645;28;1173;-71
2023/11/18 00:22:53;;;;;;;1.10;1.10;;;;;;;8.46;80.61;92601.69;515213;28;1102;-72
2023/11/18 00:23:10;;;;;;;1.30;1.15;;;;;;;8.22;80.77;92561.03;515894;28;991;-71
2023/11/18 00:23:26;;;;;;;1.90;1.43;;;;;;;8.45;80.67;92600.22;515350;28;920;-72
2023/11/18 00:23:41;;;;;;;2.25;1.35;;;;;;;8.44;80.42;92603.53;515687;28;1110;-72
2023/11/18 00:23:57;;;;;;;2.45;1.30;;;;;;;8.43;80.65;92605.53;515176;28;1699;-70
2023/11/18 00:24:14;;;;;;;1.30;1.30;;;;;;;8.43;80.45;92602.78;515233;28;1082;-72
2023/11/18 00:24:29;;;;;;;1.13;1.13;;;;;;;8.43;80.69;92597.28;517024;28;1196;-70
2023/11/18 00:24:44;;;;;;;1.10;1.10;;;;;;;8.44;80.65;92604.25;514774;28;1046;-70
2023/11/18 00:25:00;;;;;;;1.17;1.17;;;;;;;8.43;80.58;92600.03;514872;28;1211;-70
2023/11/18 00:25:15;;;;;;;1.43;1.37;;;;;;;8.44;80.67;92600.78;515313;28;1027;-70
2023/11/18 00:25:31;;;;;;;1.50;1.40;;;;;;;8.44;80.31;92607.00;515172;28;1208;-70
2023/11/18 00:25:47;;;;;;;1.42;1.40;;;;;;;8.45;80.19;92607.72;513382;28;1150;-70
2023/11/18 00:26:02;;;;;;;1.60;1.50;;;;;;;8.45;80.32;92608.47;514578;28;841;-70
2023/11/18 00:26:18;;;;;;;1.70;1.60;;;;;;;8.45;80.33;92596.72;511334;29;1187;-70
2023/11/18 00:26:34;;;;;;;1.43;1.43;;;;;;;8.44;80.08;92598.75;513652;28;1039;-70
2023/11/18 00:26:50;;;;;;;1.52;1.42;;;;;;;8.45;79.92;92596.72;513048;28;1288;-70
2023/11/18 00:27:05;;;;;;;1.40;1.30;;;;;;;8.45;80.03;92594.72;511817;28;1042;-70
2023/11/18 00:27:22;;;;;;;1.20;1.20;;;;;;;8.45;80.00;92600.22;514247;28;1189;-70
2023/11/18 00:27:38;;;;;;;1.73;1.63;;;;;;;8.45;80.06;92599.47;514130;28;1007;-70
2023/11/18 00:27:54;;;;;;;1.70;1.60;;;;;;;8.43;80.09;92596.53;515488;28;1150;-70
2023/11/18 00:28:09;;;;;;;1.33;1.23;;;;;;;8.42;80.36;92604.09;515088;28;1603;-71
2023/11/18 00:28:25;;;;;;;1.40;1.30;;;;;;;8.40;80.18;92595.66;514600;28;1428;-70
2023/11/18 00:28:40;;;;;;;1.50;1.40;;;;;;;8.38;79.95;92601.69;513928;28;1268;-71
2023/11/18 00:28:56;;;;;;;1.50;1.40;;;;;;;8.38;80.06;92595.47;514955;28;1181;-70
2023/11/18 00:29:11;;;;;;;1.30;1.30;;;;;;;8.37;80.03;92594.00;515812;28;1184;-70
2023/11/18 00:29:26;;;;;;;1.30;1.20;;;;;;;8.37;80.18;92605.00;514961;28;1138;-70
2023/11/18 00:29:43;;;;;;;1.15;1.10;;;;;;;8.38;80.22;92606.50;515246;28;1926;-70
2023/11/18 00:29:59;;;;;;;1.30;1.20;;;;;;;8.37;80.52;92605.00;515145;28;1026;-70
2023/11/18 00:30:14;;;;;;;1.40;1.30;;;;;;;8.37;80.16;92613.25;514806;28;1107;-70
2023/11/18 00:30:29;;;;;;;1.37;1.20;;;;;;;8.37;80.49;92610.50;515259;28;1086;-70
2023/11/18 00:30:45;;;;;;;1.40;1.30;;;;;;;8.36;80.50;92617.28;515552;28;919;-71
2023/11/18 00:31:00;;;;;;;1.17;1.17;;;;;;;8.36;80.33;92615.28;515148;28;1685;-70
2023/11/18 00:31:16;;;;;;;1.02;1.02;;;;;;;8.36;80.64;92622.78;515196;28;909;-70
2023/11/18 00:31:31;;;;;;;1.10;1.10;;;;;;;8.35;80.46;92624.81;515252;28;766;-70
2023/11/18 00:31:46;;;;;;;1.33;1.23;;;;;;;8.35;80.39;92630.31;515505;28;773;-71
2023/11/18 00:32:03;;;;;;;1.40;1.30;;;;;;;8.35;80.82;92624.09;515786;28;829;-70
2023/11/18 00:32:18;;;;;;;1.45;1.35;;;;;;;8.33;80.44;92629.41;515452;28;828;-70
2023/11/18 00:32:35;;;;;;;1.37;1.27;;;;;;;8.32;80.92;92633.44;515424;28;840;-71
2023/11/18 00:32:50;;;;;;;1.40;1.30;;;;;;;8.33;80.55;92626.66;515632;28;1086;-72
2023/11/18 00:33:05;;;;;;;1.37;1.27;;;;;;;8.32;80.92;92627.94;515619;28;820;-71
2023/11/18 00:33:21;;;;;;;1.30;1.20;;;;;;;8.32;80.76;92630.69;515425;28;1151;-70
2023/11/18 00:33:36;;;;;;;1.40;1.30;;;;;;;8.33;80.82;92634.91;515326;28;848;-70
2023/11/18 00:33:52;;;;;;;1.20;1.20;;;;;;;8.34;80.84;92636.34;515697;28;801;-70
2023/11/18 00:34:07;;;;;;;1.45;1.33;;;;;;;8.34;81.08;92636.34;515749;28;875;-70
2023/11/18 00:34:23;;;;;;;1.60;1.40;;;;;;;8.34;80.84;92628.09;515144;28;1400;-70
2023/11/18 00:34:38;;;;;;;1.58;1.40;;;;;;;8.36;80.96;92634.53;515113;28;1346;-70
2023/11/18 00:34:54;;;;;;;1.70;1.40;;;;;;;8.36;80.70;92629.03;513642;28;1209;-71
2023/11/18 00:35:10;;;;;;;1.50;1.40;;;;;;;8.37;81.16;92635.25;515071;28;824;-71
2023/11/18 00:35:25;;;;;;;1.50;1.40;;;;;;;8.37;80.76;92632.50;515385;28;899;-71
2023/11/18 00:35:41;;;;;;;1.60;1.50;;;;;;;8.38;80.78;92636.75;515224;28;1693;-71
2023/11/18 00:35:56;;;;;;;2.08;1.50;;;;;;;8.37;80.78;92632.50;515225;28;968;-71
2023/11/18 00:36:11;;;;;;;2.10;1.40;;;;;;;8.34;80.74;92628.09;515681;28;761;-70
2023/11/18 00:36:28;;;;;;;1.53;1.30;;;;;;;8.36;80.90;92625.53;514547;28;1397;-71
2023/11/18 00:36:43;;;;;;;1.30;1.20;;;;;;;8.36;80.75;92626.28;515563;28;848;-71
2023/11/18 00:36:59;;;;;;;1.30;1.20;;;;;;;8.35;80.84;92632.34;515856;28;896;-70
2023/11/18 00:37:14;;;;;;;1.20;1.10;;;;;;;8.34;80.93;92625.34;515726;28;1413;-70
2023/11/18 00:37:29;;;;;;;1.10;1.10;;;;;;;8.34;81.06;92625.34;515130;28;1122;-70
2023/11/18 00:37:45;;;;;;;1.13;1.10;;;;;;;8.36;80.96;92628.28;515620;28;1138;-70
2023/11/18 00:38:00;;;;;;;1.10;1.10;;;;;;;8.21;80.98;92603.53;515509;28;777;-70
2023/11/18 00:38:16;;;;;;;1.00;1.00;;;;;;;8.36;81.18;92620.78;516487;28;941;-70
2023/11/18 00:38:32;;;;;;;1.00;0.90;;;;;;;8.38;80.94;92629.19;515383;28;1751;-70
2023/11/18 00:38:47;;;;;;;1.05;1.00;;;;;;;8.38;80.93;92623.69;515559;28;877;-70
2023/11/18 00:39:04;;;;;;;1.40;1.10;;;;;;;8.40;81.00;92625.91;515634;28;812;-70
2023/11/18 00:39:20;;;;;;;1.83;1.20;;;;;;;8.40;81.03;92626.63;516622;28;840;-70
2023/11/18 00:39:37;;;;;;;1.20;1.10;;;;;;;8.42;81.05;92628.84;515382;28;1077;-70
2023/11/18 00:39:52;;;;;;;1.10;1.10;;;;;;;8.40;80.98;92623.16;515603;28;1026;-70
2023/11/18 00:40:09;;;;;;;1.17;1.17;;;;;;;8.39;80.91;92630.69;515640;28;911;-70
2023/11/18 00:40:25;;;;;;;1.27;1.17;;;;;;;8.39;80.96;92627.19;515418;28;856;-70
2023/11/18 00:40:40;;;;;;;1.30;1.20;;;;;;;8.40;81.04;92632.13;515380;28;836;-70
2023/11/18 00:40:56;;;;;;;1.40;1.10;;;;;;;8.40;80.79;92626.63;515665;28;758;-70
2023/11/18 00:41:12;;;;;;;1.10;1.00;;;;;;;8.41;80.98;92632.88;515029;28;1777;-71
2023/11/18 00:41:27;;;;;;;0.90;0.90;;;;;;;8.43;80.88;92627.53;515652;28;952;-71
2023/11/18 00:41:43;;;;;;;1.00;1.00;;;;;;;8.43;80.66;92626.81;515180;28;1047;-70
2023/11/18 00:41:58;;;;;;;1.30;1.20;;;;;;;8.42;81.02;92626.09;515574;28;808;-70
2023/11/18 00:42:14;;;;;;;1.33;1.23;;;;;;;8.40;80.82;92623.88;515278;28;789;-70
2023/11/18 00:42:29;;;;;;;1.30;1.20;;;;;;;8.39;80.53;92627.94;515368;28;766;-71
2023/11/18 00:42:45;;;;;;;1.10;1.10;;;;;;;8.39;80.72;92627.94;515383;28;1157;-70
2023/11/18 00:43:00;;;;;;;1.00;1.00;;;;;;;8.40;80.62;92623.88;515915;28;840;-70
2023/11/18 00:43:15;;;;;;;1.08;1.08;;;;;;;8.41;80.96;92619.09;515323;28;919;-71
2023/11/18 00:43:31;;;;;;;1.20;1.10;;;;;;;8.41;80.94;92616.34;515261;28;1093;-70
2023/11/18 00:43:46;;;;;;;1.20;1.10;;;;;;;8.42;80.59;92623.34;515322;28;838;-70
2023/11/18 00:44:03;;;;;;;1.20;1.10;;;;;;;8.40;80.70;92609.41;515955;28;1021;-70
2023/11/18 00:44:18;;;;;;;1.08;1.05;;;;;;;8.40;80.52;92610.13;515261;28;824;-70
2023/11/18 00:44:34;;;;;;;1.10;1.00;;;;;;;8.43;80.79;92610.28;515415;28;845;-70
2023/11/18 00:44:49;;;;;;;1.23;1.13;;;;;;;8.44;80.70;92612.50;515478;28;785;-70
2023/11/18 00:45:05;;;;;;;1.30;1.20;;;;;;;8.46;80.69;92622.94;515865;28;917;-70
2023/11/18 00:45:21;;;;;;;1.20;1.20;;;;;;;8.46;80.59;92618.19;515131;28;1725;-70
2023/11/18 00:45:36;;;;;;;1.50;1.40;;;;;;;8.45;80.40;92613.97;515002;28;1008;-70
2023/11/18 00:45:52;;;;;;;1.90;1.50;;;;;;;8.46;80.53;92618.19;515444;28;765;-70
2023/11/18 00:46:07;;;;;;;1.80;1.37;;;;;;;8.46;80.50;92620.94;515824;28;924;-70
2023/11/18 00:46:22;;;;;;;1.55;1.33;;;;;;;8.47;80.53;92616.88;515374;28;1091;-70
2023/11/18 00:46:38;;;;;;;1.53;1.33;;;;;;;8.47;80.38;92618.94;515294;28;1034;-70
2023/11/18 00:46:53;;;;;;;1.20;1.10;;;;;;;8.49;80.32;92616.34;515640;28;782;-70
2023/11/18 00:47:08;;;;;;;1.30;1.20;;;;;;;8.49;80.46;92614.31;515738;28;772;-70
2023/11/18 00:47:24;;;;;;;1.27;1.17;;;;;;;8.50;80.23;92615.78;515251;28;753;-70
2023/11/18 00:47:41;;;;;;;1.03;1.00;;;;;;;8.51;80.08;92613.78;515433;28;816;-70
2023/11/18 00:47:56;;;;;;;1.23;1.13;;;;;;;8.50;80.44;92618.53;515432;28;1170;-70
2023/11/18 00:48:11;;;;;;;3.13;1.20;;;;;;;8.52;79.98;92620.72;515670;28;913;-70
2023/11/18 00:48:28;;;;;;;2.95;1.20;;;;;;;8.39;80.01;92596.94;515077;28;1920;-71
2023/11/18 00:48:43;;;;;;;1.40;1.30;;;;;;;8.53;80.08;92617.44;514396;28;832;-70
2023/11/18 00:48:58;;;;;;;1.27;1.20;;;;;;;8.53;79.92;92617.44;515556;28;872;-70
2023/11/18 00:49:14;;;;;;;1.40;1.30;;;;;;;8.54;80.17;92616.13;515148;28;955;-70
2023/11/18 00:49:29;;;;;;;1.47;1.37;;;;;;;8.54;80.18;92613.38;515236;28;1190;-70
2023/11/18 00:49:45;;;;;;;1.27;1.20;;;;;;;8.54;80.00;92612.66;515442;28;777;-70
2023/11/18 00:50:02;;;;;;;1.50;1.40;;;;;;;8.54;80.16;92609.91;515822;28;1048;-70
2023/11/18 00:50:17;;;;;;;1.60;1.50;;;;;;;8.55;80.12;92614.13;517353;28;903;-69
2023/11/18 00:50:33;;;;;;;1.58;1.38;;;;;;;8.55;80.00;92608.63;516493;28;781;-69
2023/11/18 00:50:48;;;;;;;1.40;1.30;;;;;;;8.54;80.38;92609.91;515420;28;1162;-70
2023/11/18 00:51:04;;;;;;;1.40;1.30;;;;;;;8.53;80.16;92608.44;515380;28;1645;-72
2023/11/18 00:51:19;;;;;;;1.30;1.20;;;;;;;8.53;80.34;92608.44;515384;28;856;-73
2023/11/18 00:51:35;;;;;;;1.42;1.27;;;;;;;8.52;80.31;92607.72;515174;28;1110;-73
2023/11/18 00:51:50;;;;;;;1.47;1.37;;;;;;;8.50;80.12;92602.03;515109;28;1540;-73
2023/11/18 00:52:06;;;;;;;1.50;1.40;;;;;;;8.50;80.46;92613.03;515676;28;833;-71
2023/11/18 00:52:21;;;;;;;1.53;1.43;;;;;;;8.50;80.26;92607.53;514835;28;1250;-72
2023/11/18 00:52:41;;;;;;;1.40;1.30;;;;;;;8.51;80.39;92603.47;514847;28;840;-72
2023/11/18 00:52:56;;;;;;;1.73;1.60;;;;;;;8.52;80.34;92604.97;514926;28;1661;-72
2023/11/18 00:53:12;;;;;;;1.60;1.50;;;;;;;8.51;80.30;92603.47;515449;28;825;-72
2023/11/18 00:53:27;;;;;;;1.43;1.33;;;;;;;8.52;80.60;92599.47;515642;28;1217;-71
2023/11/18 00:53:42;;;;;;;1.43;1.33;;;;;;;8.52;80.44;92599.47;515303;28;837;-72
2023/11/18 00:54:00;;;;;;;1.33;1.23;;;;;;;8.52;80.37;92593.94;515373;28;872;-72
2023/11/18 00:54:16;;;;;;;1.67;1.20;;;;;;;8.51;80.44;92603.47;515469;28;888;-71
2023/11/18 00:54:31;;;;;;;1.75;1.38;;;;;;;8.51;80.45;92597.28;515503;28;935;-70
2023/11/18 00:54:47;;;;;;;1.60;1.50;;;;;;;8.50;80.18;92595.78;515270;28;1148;-70
2023/11/18 00:55:02;;;;;;;1.40;1.30;;;;;;;8.50;80.38;92590.28;515397;28;829;-70
2023/11/18 00:55:18;;;;;;;1.10;1.10;;;;;;;8.50;80.20;92593.03;515549;28;805;-70
2023/11/18 00:55:33;;;;;;;1.40;1.35;;;;;;;8.49;80.38;92594.34;515443;28;1420;-70
2023/11/18 00:55:48;;;;;;;1.70;1.60;;;;;;;8.50;80.33;92593.78;515270;28;1349;-70
2023/11/18 00:56:07;;;;;;;1.63;1.52;;;;;;;8.50;80.42;92593.78;515397;28;800;-70
2023/11/18 00:56:23;;;;;;;2.20;1.55;;;;;;;8.49;80.32;92594.34;516024;28;1023;-70
2023/11/18 00:56:38;;;;;;;1.60;1.50;;;;;;;8.48;80.37;92593.59;517388;28;1253;-71
2023/11/18 00:56:53;;;;;;;1.30;1.30;;;;;;;8.48;80.42;92592.88;516855;28;1390;-71
2023/11/18 00:57:09;;;;;;;1.50;1.40;;;;;;;8.48;80.25;92588.09;517308;28;867;-72
2023/11/18 00:57:24;;;;;;;1.47;1.37;;;;;;;8.48;80.24;92590.13;515957;28;769;-71
2023/11/18 00:57:40;;;;;;;1.13;1.10;;;;;;;8.48;80.33;92592.88;515592;28;1070;-72
2023/11/18 00:57:55;;;;;;;1.33;1.23;;;;;;;8.48;80.16;92588.09;515375;28;985;-71
2023/11/18 00:58:10;;;;;;;1.47;1.37;;;;;;;8.49;80.07;92591.59;515314;28;900;-71
2023/11/18 00:58:26;;;;;;;1.50;1.40;;;;;;;8.47;80.20;92588.66;517334;28;841;-71
2023/11/18 00:58:42;;;;;;;1.50;1.40;;;;;;;8.46;79.91;92589.94;517316;28;776;-71
2023/11/18 00:58:57;;;;;;;1.60;1.50;;;;;;;8.46;79.95;92593.44;517353;28;915;-71
2023/11/18 00:59:13;;;;;;;1.60;1.50;;;;;;;8.46;79.99;92595.44;517050;28;884;-70
2023/11/18 00:59:28;;;;;;;1.97;1.47;;;;;;;8.46;80.21;92593.44;515598;28;840;-70
2023/11/18 00:59:44;;;;;;;2.40;1.60;;;;;;;8.46;79.84;92593.44;515789;28;829;-70
2023/11/18 00:59:59;;;;;;;1.65;1.40;;;;;;;8.44;79.90;92587.75;517467;28;859;-70
2023/11/18 01:00:21;;;;;;;1.47;1.30;;;;;;;8.47;79.98;92586.63;517476;28;776;-71
2023/11/18 01:00:36;;;;;;;1.50;1.40;;;;;;;8.47;80.19;92594.88;517369;28;888;-71
2023/11/18 01:00:52;;;;;;;1.40;1.30;;;;;;;8.49;80.02;92588.84;517617;28;934;-70
2023/11/18 01:01:07;;;;;;;1.30;1.20;;;;;;;8.48;79.86;92590.84;517408;28;841;-71
2023/11/18 01:01:23;;;;;;;1.40;1.30;;;;;;;8.49;80.10;92589.56;517385;28;807;-71
2023/11/18 01:01:38;;;;;;;1.48;1.38;;;;;;;8.50;80.15;92590.28;517320;28;741;-71
2023/11/18 01:01:53;;;;;;;1.50;1.40;;;;;;;8.50;80.24;92591.03;517524;28;808;-71
2023/11/18 01:02:09;;;;;;;1.67;1.57;;;;;;;8.51;80.06;92589.00;517405;28;908;-71
2023/11/18 01:02:24;;;;;;;1.55;1.45;;;;;;;8.43;79.99;92574.53;517488;28;832;-70
2023/11/18 01:02:40;;;;;;;1.50;1.40;;;;;;;8.51;80.30;92591.75;517457;28;932;-70
2023/11/18 01:02:56;;;;;;;1.42;1.27;;;;;;;8.52;80.05;92590.47;517512;28;899;-70
2023/11/18 01:03:12;;;;;;;1.30;1.20;;;;;;;8.51;79.74;92591.75;517388;28;986;-71
2023/11/18 01:03:27;;;;;;;1.40;1.30;;;;;;;8.52;79.95;92590.47;517381;28;808;-71
2023/11/18 01:03:46;;;;;;;1.40;1.30;;;;;;;8.51;79.80;92592.47;517356;28;807;-71
2023/11/18 01:04:01;;;;;;;1.02;1.02;;;;;;;8.50;80.08;92591.03;517528;28;923;-71
2023/11/18 01:04:16;;;;;;;1.00;1.00;;;;;;;8.52;80.08;92593.22;517407;28;843;-71
2023/11/18 01:04:33;;;;;;;1.17;1.10;;;;;;;8.51;79.92;92594.53;517529;28;780;-70
2023/11/18 01:04:48;;;;;;;1.20;1.10;;;;;;;8.51;79.91;92594.53;517251;28;1068;-71
2023/11/18 01:05:04;;;;;;;1.20;1.10;;;;;;;8.51;80.06;92606.22;517445;28;851;-71
2023/11/18 01:05:19;;;;;;;1.20;1.20;;;;;;;8.30;80.09;92570.00;517412;28;793;-70
2023/11/18 01:05:35;;;;;;;1.40;1.30;;;;;;;8.51;79.92;92606.22;517242;28;776;-71
2023/11/18 01:05:50;;;;;;;1.40;1.30;;;;;;;8.52;80.39;92595.97;517389;28;882;-71
2023/11/18 01:06:06;;;;;;;1.40;1.30;;;;;;;8.51;80.07;92606.22;517628;28;781;-71
2023/11/18 01:06:21;;;;;;;1.88;1.58;;;;;;;8.51;80.20;92597.97;517505;28;780;-71
2023/11/18 01:06:37;;;;;;;1.57;1.47;;;;;;;8.52;80.23;92604.97;517243;28;964;-71
2023/11/18 01:06:52;;;;;;;1.40;1.30;;;;;;;8.51;80.10;92603.47;517404;28;747;-71
2023/11/18 01:07:09;;;;;;;1.63;1.52;;;;;;;8.51;80.28;92608.28;517424;28;1017;-71
2023/11/18 01:07:24;;;;;;;1.35;1.25;;;;;;;8.50;80.50;92607.53;517381;28;907;-72
2023/11/18 01:07:40;;;;;;;1.20;1.10;;;;;;;8.48;80.19;92607.34;515168;28;828;-72
2023/11/18 01:07:55;;;;;;;1.92;1.40;;;;;;;8.48;80.07;92612.13;510782;29;1321;-71
2023/11/18 01:08:11;;;;;;;2.37;1.60;;;;;;;8.47;80.11;92610.69;511405;29;841;-70
2023/11/18 01:08:26;;;;;;;1.97;1.70;;;;;;;8.46;79.90;92615.44;511315;29;837;-70
2023/11/18 01:08:47;;;;;;;1.83;1.73;;;;;;;8.46;80.16;92614.69;511145;29;869;-72
2023/11/18 01:09:03;;;;;;;1.92;1.77;;;;;;;8.46;79.81;92618.19;511172;29;829;-72
2023/11/18 01:09:19;;;;;;;2.17;1.70;;;;;;;8.46;80.14;92611.94;510911;28;1156;-71
2023/11/18 01:09:38;;;;;;;2.55;1.67;;;;;;;8.45;80.20;92611.22;513978;28;1911;-70
2023/11/18 01:09:53;;;;;;;1.83;1.60;;;;;;;8.44;80.11;92614.53;515552;28;1013;-73
2023/11/18 01:10:13;;;;;;;2.00;1.80;;;;;;;8.42;80.07;92609.59;515415;28;768;-72
2023/11/18 01:10:29;;;;;;;1.80;1.70;;;;;;;8.43;80.11;92621.31;515334;28;945;-71
2023/11/18 01:10:45;;;;;;;1.40;1.30;;;;;;;8.43;80.26;92611.03;515431;28;828;-71
2023/11/18 01:11:00;;;;;;;1.40;1.30;;;;;;;8.43;80.23;92611.03;515501;28;715;-70
2023/11/18 01:11:18;;;;;;;1.45;1.35;;;;;;;8.44;80.15;92615.25;515173;28;757;-71
2023/11/18 01:11:35;;;;;;;1.70;1.60;;;;;;;8.43;79.92;92613.78;515408;28;841;-70
2023/11/18 01:11:50;;;;;;;1.85;1.60;;;;;;;8.42;79.83;92612.34;515357;28;873;-70
2023/11/18 01:12:09;;;;;;;1.63;1.43;;;;;;;8.41;79.93;92616.34;515417;28;935;-71
2023/11/18 01:12:25;;;;;;;1.27;1.27;;;;;;;8.40;80.20;92612.88;515541;28;1605;-71
2023/11/18 01:12:40;;;;;;;1.55;1.42;;;;;;;8.40;79.99;92612.16;515286;28;872;-71
2023/11/18 01:12:57;;;;;;;1.63;1.50;;;;;;;8.40;80.18;92623.16;515389;28;812;-71
2023/11/18 01:13:13;;;;;;;1.50;1.40;;;;;;;8.40;80.01;92615.63;515291;28;858;-71
2023/11/18 01:13:28;;;;;;;1.50;1.40;;;;;;;8.41;80.06;92616.34;515274;28;1312;-70
2023/11/18 01:13:43;;;;;;;1.43;1.33;;;;;;;8.43;79.91;92618.56;515253;28;835;-70
2023/11/18 01:13:59;;;;;;;1.30;1.30;;;;;;;8.43;80.07;92613.78;515367;28;772;-70
2023/11/18 01:14:14;;;;;;;1.30;1.30;;;;;;;8.43;79.68;92613.03;515523;28;828;-71
2023/11/18 01:14:29;;;;;;;1.20;1.20;;;;;;;8.42;79.67;92626.09;515646;28;860;-71
2023/11/18 01:14:45;;;;;;;1.20;1.20;;;;;;;8.40;79.48;92614.91;515355;28;1099;-70
2023/11/18 01:15:00;;;;;;;1.33;1.23;;;;;;;8.39;79.21;92616.19;515519;28;1033;-70
2023/11/18 01:15:15;;;;;;;1.50;1.40;;;;;;;8.38;79.50;92623.69;515323;28;777;-70
2023/11/18 01:15:31;;;;;;;1.70;1.60;;;;;;;8.36;79.40;92612.53;515448;28;817;-70
2023/11/18 01:15:48;;;;;;;1.73;1.63;;;;;;;8.32;79.30;92608.69;515104;28;2499;-70
2023/11/18 01:16:04;;;;;;;1.45;1.35;;;;;;;8.37;79.35;92613.25;515483;28;895;-70
2023/11/18 01:16:19;;;;;;;1.35;1.25;;;;;;;8.36;79.32;92620.03;515308;28;1161;-70
2023/11/18 01:16:35;;;;;;;1.48;1.38;;;;;;;8.36;79.29;92625.53;515398;28;1573;-70
2023/11/18 01:16:50;;;;;;;1.50;1.40;;;;;;;8.36;79.28;92618.03;515492;28;785;-70
2023/11/18 01:17:06;;;;;;;1.40;1.30;;;;;;;8.37;79.51;92624.25;515312;28;757;-70
2023/11/18 01:17:22;;;;;;;1.25;1.20;;;;;;;8.37;79.74;92621.50;515320;28;848;-70
2023/11/18 01:17:38;;;;;;;1.15;1.10;;;;;;;8.14;79.83;92579.56;515403;28;848;-71